Time;durP1;ratioP1;P1;durP2;ratioP2;P2;SDS_P1;SDS_P2;PMS_P1;PMS_P2;Temp;Humidity;BMP_temperature;BMP_pressure;BME280_temperature;BME280_humidity;BME280_pressure;Samples;Min_cycle;Max_cycle;Signal;HPM_P1;HPM_P2
2023/09/27 00:00:11;;;;;;;21.30;13.00;;;;;;;15.77;72.47;100678.09;107332;1254;73076;-39
2023/09/27 00:02:39;;;;;;;14.80;13.00;;;;;;;15.76;72.71;100672.75;107315;1260;67917;-39
2023/09/27 00:05:10;;;;;;;24.80;13.10;;;;;;;15.76;73.04;100675.34;107397;1260;71912;-39
2023/09/27 00:07:39;;;;;;;19.00;13.90;;;;;;;15.75;73.37;100671.64;107325;1255;59540;-39
2023/09/27 00:10:11;;;;;;;39.70;13.40;;;;;;;15.72;73.69;100671.12;107436;1254;59615;-39
2023/09/27 00:12:39;;;;;;;25.70;13.00;;;;;;;15.69;74.13;100670.29;107344;1254;73055;-39
2023/09/27 00:15:09;;;;;;;21.00;13.00;;;;;;;15.65;74.22;100673.65;107382;1254;66790;-39
2023/09/27 00:17:37;;;;;;;19.40;11.50;;;;;;;15.69;74.51;100669.98;107367;1260;72635;-39
2023/09/27 00:20:09;;;;;;;29.50;12.00;;;;;;;15.73;74.44;100665.60;107257;1260;60078;-39
2023/09/27 00:22:37;;;;;;;27.50;11.70;;;;;;;15.73;74.79;100667.10;107319;1257;60033;-39
2023/09/27 00:25:08;;;;;;;28.80;12.40;;;;;;;15.73;75.04;100667.48;107477;1260;72092;-39
2023/09/27 00:27:36;;;;;;;24.50;12.30;;;;;;;15.72;75.10;100670.59;107291;1263;67880;-39
2023/09/27 00:30:07;;;;;;;16.10;11.80;;;;;;;15.70;75.28;100667.73;107470;1255;73029;-39
2023/09/27 00:32:35;;;;;;;21.60;11.80;;;;;;;15.72;75.44;100665.74;107354;1259;60378;-39
2023/09/27 00:35:04;;;;;;;25.50;10.70;;;;;;;15.74;75.66;100665.55;107293;1261;60011;-39
2023/09/27 00:37:35;;;;;;;23.90;11.10;;;;;;;15.72;75.98;100665.33;107365;1260;73041;-39
2023/09/27 00:40:10;;;;;;;20.60;10.90;;;;;;;15.70;76.42;100666.70;107360;1260;67720;-39
2023/09/27 00:42:38;;;;;;;22.80;11.40;;;;;;;15.70;76.13;100662.95;107243;1259;72702;-39
2023/09/27 00:45:07;;;;;;;20.30;10.90;;;;;;;15.67;76.25;100660.80;107387;1254;61689;-39
2023/09/27 00:47:34;;;;;;;20.30;10.20;;;;;;;15.70;76.28;100661.00;107345;1255;60013;-39
2023/09/27 00:50:03;;;;;;;11.70;10.20;;;;;;;15.72;76.21;100660.68;107215;1254;73138;-39
2023/09/27 00:52:32;;;;;;;14.50;11.70;;;;;;;15.74;76.37;100662.64;107307;1254;66425;-39
2023/09/27 00:54:59;;;;;;;22.50;11.50;;;;;;;15.76;76.29;100658.39;107304;1254;71858;-39
2023/09/27 00:57:27;;;;;;;15.50;11.40;;;;;;;15.73;76.27;100657.86;107322;1260;59403;-39
2023/09/27 00:59:55;;;;;;;16.10;10.60;;;;;;;15.70;76.41;100660.70;107280;1254;59413;-39
2023/09/27 01:02:23;;;;;;;11.80;10.00;;;;;;;15.69;76.41;100659.73;107335;1260;71803;-38
2023/09/27 01:04:50;;;;;;;21.20;10.80;;;;;;;15.69;76.64;100662.23;107120;1254;67606;-38
2023/09/27 01:07:18;;;;;;;15.80;9.50;;;;;;;15.73;76.84;100660.67;107278;1261;72660;-38
2023/09/27 01:09:46;;;;;;;17.80;9.50;;;;;;;15.74;76.89;100657.25;107369;1257;60427;-39
2023/09/27 01:12:13;;;;;;;17.30;9.80;;;;;;;15.71;76.80;100658.68;107261;1254;60331;-39
2023/09/27 01:14:41;;;;;;;14.30;9.30;;;;;;;15.68;76.93;100652.55;107440;1255;71623;-39
2023/09/27 01:17:09;;;;;;;11.70;9.50;;;;;;;15.69;76.87;100651.46;107111;1254;67658;-39
2023/09/27 01:19:41;;;;;;;11.50;9.00;;;;;;;15.73;76.90;100650.60;107385;1258;72677;-39
2023/09/27 01:22:08;;;;;;;10.00;9.00;;;;;;;15.76;76.90;100650.04;107241;1262;60184;-39
2023/09/27 01:24:37;;;;;;;10.40;9.20;;;;;;;15.79;77.10;100651.34;107316;1254;60355;-39
2023/09/27 01:27:09;;;;;;;17.00;9.60;;;;;;;15.82;76.93;100649.45;107259;1254;73847;-39
2023/09/27 01:29:36;;;;;;;10.90;9.70;;;;;;;15.80;76.66;100651.59;107079;1263;67620;-39
2023/09/27 01:32:05;;;;;;;12.00;8.40;;;;;;;15.82;76.51;100643.41;107342;1257;71029;-39
2023/09/27 01:34:33;;;;;;;10.60;8.70;;;;;;;15.87;76.28;100644.77;107267;1257;62920;-39
2023/09/27 01:37:01;;;;;;;11.30;9.10;;;;;;;15.90;76.02;100646.84;107332;1255;60325;-43
2023/09/27 01:39:30;;;;;;;14.40;9.00;;;;;;;15.89;76.05;100649.24;107356;1254;73842;-39
2023/09/27 01:42:00;;;;;;;13.40;9.30;;;;;;;15.86;76.20;100654.67;107359;1260;67762;-39
2023/09/27 01:44:27;;;;;;;12.60;9.10;;;;;;;15.83;76.40;100651.96;107338;1258;71355;-39
2023/09/27 01:46:55;;;;;;;8.90;8.00;;;;;;;15.85;76.44;100656.05;107357;1257;61677;-38
2023/09/27 01:49:23;;;;;;;10.80;8.70;;;;;;;15.90;76.17;100654.50;107385;1254;60566;-39
2023/09/27 01:51:51;;;;;;;13.10;7.90;;;;;;;15.89;76.12;100656.60;107326;1260;73858;-39
2023/09/27 01:54:18;;;;;;;20.50;8.70;;;;;;;15.86;76.17;100655.54;107381;1254;67965;-39
2023/09/27 01:56:46;;;;;;;13.10;8.00;;;;;;;15.85;76.26;100657.30;107322;1254;70747;-39
2023/09/27 01:59:14;;;;;;;9.80;8.50;;;;;;;15.80;76.18;100660.41;107255;1254;60398;-39
2023/09/27 02:01:41;;;;;;;9.80;7.80;;;;;;;15.79;76.11;100656.80;107282;1254;60658;-39
2023/09/27 02:04:09;;;;;;;8.80;8.00;;;;;;;15.78;76.02;100658.81;107351;1260;73875;-39
2023/09/27 02:06:37;;;;;;;8.70;7.80;;;;;;;15.76;76.24;100659.64;107364;1254;67668;-39
2023/09/27 02:09:05;;;;;;;13.80;8.80;;;;;;;15.75;76.31;100659.23;107397;1257;71307;-39
2023/09/27 02:11:33;;;;;;;8.40;7.50;;;;;;;15.74;76.45;100659.20;107363;1257;61707;-39
2023/09/27 02:14:04;;;;;;;9.30;7.50;;;;;;;15.77;76.40;100661.38;107300;1258;60339;-39
2023/09/27 02:16:33;;;;;;;8.10;7.30;;;;;;;15.81;76.25;100661.05;107291;1254;72950;-39
2023/09/27 02:19:04;;;;;;;10.70;8.60;;;;;;;15.78;76.46;100655.06;107356;1254;66354;-39
2023/09/27 02:21:32;;;;;;;8.70;7.50;;;;;;;15.79;76.44;100655.63;107380;1256;72683;-39
2023/09/27 02:24:00;;;;;;;12.10;8.00;;;;;;;15.79;76.25;100658.36;107395;1257;60555;-39
2023/09/27 02:26:28;;;;;;;7.50;6.70;;;;;;;15.77;76.26;100662.39;107381;1254;60322;-38
2023/09/27 02:28:56;;;;;;;10.00;6.20;;;;;;;15.81;75.90;100664.35;107430;1256;73807;-39
2023/09/27 02:31:24;;;;;;;7.20;6.60;;;;;;;15.86;75.41;100662.49;107413;1254;67629;-39
2023/09/27 02:33:52;;;;;;;8.20;6.50;;;;;;;15.84;75.40;100668.69;107348;1254;71151;-39
2023/09/27 02:36:20;;;;;;;11.40;6.50;;;;;;;15.80;75.44;100668.48;107327;1254;60328;-39
2023/09/27 02:38:47;;;;;;;8.60;7.70;;;;;;;15.77;75.42;100671.69;107354;1254;60345;-39
2023/09/27 02:41:16;;;;;;;7.00;6.30;;;;;;;15.73;75.45;100670.29;107433;1254;72606;-39
2023/09/27 02:43:44;;;;;;;7.10;6.10;;;;;;;15.74;75.28;100671.39;107407;1254;67810;-39
2023/09/27 02:46:11;;;;;;;7.50;6.80;;;;;;;15.74;75.20;100669.52;107367;1257;71415;-39
2023/09/27 02:48:39;;;;;;;11.60;7.30;;;;;;;15.71;75.35;100668.20;107356;1254;60418;-39
2023/09/27 02:51:07;;;;;;;14.70;7.40;;;;;;;15.65;75.37;100664.05;107369;1260;60425;-39
2023/09/27 02:53:35;;;;;;;10.40;7.60;;;;;;;15.57;75.49;100666.70;107357;1254;72714;-39
2023/09/27 02:56:05;;;;;;;8.30;7.40;;;;;;;15.51;75.54;100664.23;107321;1254;67899;-39
2023/09/27 02:58:32;;;;;;;;;;;;;;;15.55;75.48;100668.30;107378;1257;71831;-39
2023/09/27 03:01:00;;;;;;;8.40;6.80;;;;;;;15.56;75.42;100672.31;107263;1258;61157;-39
2023/09/27 03:03:30;;;;;;;8.60;7.30;;;;;;;15.51;75.53;100670.95;107280;1254;60418;-38
2023/09/27 03:05:59;;;;;;;10.10;9.10;;;;;;;15.48;75.76;100670.17;107524;1254;72664;-39
2023/09/27 03:08:26;;;;;;;10.20;9.00;;;;;;;15.45;75.65;100669.23;107378;1254;67575;-39
2023/09/27 03:10:54;;;;;;;9.80;8.00;;;;;;;15.40;75.80;100671.40;107302;1254;72683;-39
2023/09/27 03:13:22;;;;;;;12.80;8.30;;;;;;;15.42;75.78;100673.23;107227;1257;61694;-38
2023/09/27 03:15:56;;;;;;;12.80;8.40;;;;;;;15.45;75.73;100673.38;107341;1255;60367;-39
2023/09/27 03:18:24;;;;;;;9.20;8.10;;;;;;;15.47;75.84;100673.90;107325;1254;73840;-38
2023/09/27 03:20:52;;;;;;;11.80;8.50;;;;;;;15.44;75.78;100673.90;107468;1254;66624;-39
2023/09/27 03:23:19;;;;;;;12.10;8.00;;;;;;;15.38;75.79;100678.23;107254;1258;72695;-39
2023/09/27 03:25:49;;;;;;;13.80;7.20;;;;;;;15.32;75.91;100681.23;107353;1254;61715;-39
2023/09/27 03:28:17;;;;;;;7.70;6.90;;;;;;;15.33;75.87;100682.88;107375;1254;59495;-39
2023/09/27 03:30:46;;;;;;;12.60;6.50;;;;;;;15.36;75.71;100679.45;107347;1257;72690;-39
2023/09/27 03:33:14;;;;;;;11.30;5.70;;;;;;;15.29;75.72;100672.89;107503;1253;65319;-39
2023/09/27 03:35:42;;;;;;;13.50;6.10;;;;;;;15.31;75.60;100680.91;107279;1257;73245;-39
2023/09/27 03:38:11;;;;;;;9.60;6.10;;;;;;;15.24;75.58;100683.48;107364;1257;60430;-39
2023/09/27 03:40:41;;;;;;;6.30;5.70;;;;;;;15.18;75.54;100680.71;107321;1254;60349;-39
2023/09/27 03:43:09;;;;;;;12.70;5.40;;;;;;;15.18;75.62;100680.86;107283;1260;73892;-39
2023/09/27 03:45:37;;;;;;;11.50;5.40;;;;;;;15.20;75.68;100680.44;107400;1260;66631;-39
2023/09/27 03:48:06;;;;;;;6.00;5.30;;;;;;;15.18;75.61;100682.27;107278;1254;71407;-39
2023/09/27 03:50:34;;;;;;;6.40;5.70;;;;;;;15.15;75.77;100682.20;107300;1255;60427;-39
2023/09/27 03:53:02;;;;;;;7.00;5.50;;;;;;;15.13;75.98;100679.11;107471;1254;60446;-38
2023/09/27 03:55:30;;;;;;;5.50;5.00;;;;;;;15.12;75.84;100679.94;107249;1254;73843;-38
2023/09/27 03:57:58;;;;;;;5.80;5.10;;;;;;;15.13;75.67;100674.91;107287;1256;67610;-38
2023/09/27 04:00:26;;;;;;;8.60;5.60;;;;;;;15.15;75.57;100677.98;107299;1257;70273;-39
2023/09/27 04:02:54;;;;;;;8.10;5.60;;;;;;;15.14;75.67;100679.29;107431;1257;60449;-39
2023/09/27 04:05:25;;;;;;;7.50;5.60;;;;;;;15.09;75.81;100682.64;107375;1260;62143;-39
2023/09/27 04:07:53;;;;;;;9.70;5.10;;;;;;;15.07;75.93;100679.60;107363;1255;73882;-39
2023/09/27 04:10:20;;;;;;;7.00;5.20;;;;;;;15.05;75.95;100677.95;107304;1257;67930;-39
2023/09/27 04:12:48;;;;;;;6.00;4.70;;;;;;;15.10;75.74;100677.73;107348;1257;72680;-39
2023/09/27 04:15:17;;;;;;;5.30;4.60;;;;;;;15.11;75.67;100679.15;107369;1256;60462;-38
2023/09/27 04:17:45;;;;;;;7.50;4.90;;;;;;;15.09;75.61;100682.09;107311;1257;60411;-39
2023/09/27 04:20:19;;;;;;;7.00;4.90;;;;;;;15.08;75.49;100685.95;107303;1255;74449;-39
2023/09/27 04:22:48;;;;;;;8.30;4.60;;;;;;;15.03;75.33;100678.98;107326;1257;67080;-39
2023/09/27 04:25:16;;;;;;;8.80;4.40;;;;;;;15.00;75.16;100681.71;107323;1260;72722;-38
2023/09/27 04:27:46;;;;;;;13.20;4.40;;;;;;;14.99;74.99;100684.83;107357;1260;61627;-39
2023/09/27 04:30:19;;;;;;;6.80;4.50;;;;;;;15.01;74.93;100688.29;107384;1254;59499;-38
2023/09/27 04:32:50;;;;;;;8.00;5.20;;;;;;;14.97;75.00;100690.07;107356;1257;73884;-39
2023/09/27 04:35:19;;;;;;;5.70;4.80;;;;;;;14.92;75.19;100687.08;107500;1257;66437;-38
2023/09/27 04:37:48;;;;;;;7.50;4.90;;;;;;;14.88;75.35;100682.70;107355;1257;72690;-38
2023/09/27 04:40:16;;;;;;;5.10;4.50;;;;;;;14.87;75.38;100688.83;107319;1257;61679;-39
2023/09/27 04:42:44;;;;;;;5.20;4.70;;;;;;;14.93;75.22;100688.35;107354;1256;60403;-38
2023/09/27 04:45:13;;;;;;;4.60;4.20;;;;;;;14.98;75.12;100688.47;107363;1256;73853;-38
2023/09/27 04:47:41;;;;;;;13.30;4.90;;;;;;;14.99;75.01;100694.03;107384;1257;66215;-38
2023/09/27 04:50:10;;;;;;;7.00;5.10;;;;;;;14.93;75.01;100691.71;107289;1257;72676;-39
2023/09/27 04:52:38;;;;;;;6.50;5.00;;;;;;;14.91;75.09;100690.65;107371;1255;60515;-38
2023/09/27 04:55:09;;;;;;;4.70;4.30;;;;;;;14.89;75.09;100693.97;107414;1257;60354;-39
2023/09/27 04:57:37;;;;;;;4.80;4.40;;;;;;;14.90;74.97;100697.88;107353;1254;73812;-39
2023/09/27 05:00:11;;;;;;;13.20;4.50;;;;;;;14.94;74.83;100696.95;107350;1257;67589;-39
2023/09/27 05:02:38;;;;;;;9.30;4.70;;;;;;;14.91;75.08;100696.80;107387;1257;72652;-39
2023/09/27 05:05:08;;;;;;;15.70;4.50;;;;;;;14.86;75.33;100704.89;107317;1257;60345;-39
2023/09/27 05:07:35;;;;;;;5.20;4.70;;;;;;;14.83;75.60;100698.64;107392;1255;60437;-39
2023/09/27 05:10:04;;;;;;;7.30;4.50;;;;;;;14.86;75.76;100702.77;107352;1257;73787;-38
2023/09/27 05:12:31;;;;;;;8.50;4.40;;;;;;;14.94;75.58;100695.71;107346;1257;66283;-39
2023/09/27 05:14:59;;;;;;;4.90;4.50;;;;;;;14.98;75.72;100696.04;107310;1257;72787;-39
2023/09/27 05:17:27;;;;;;;11.00;4.60;;;;;;;14.98;75.73;100697.83;107318;1257;60488;-38
2023/09/27 05:19:55;;;;;;;4.60;4.20;;;;;;;14.99;75.95;100695.29;107389;1255;60415;-39
2023/09/27 05:22:22;;;;;;;6.70;4.20;;;;;;;15.01;76.07;100695.08;107350;1255;74447;-39
2023/09/27 05:24:50;;;;;;;4.90;4.40;;;;;;;15.02;76.14;100694.16;107345;1254;66285;-39
2023/09/27 05:27:17;;;;;;;7.70;4.10;;;;;;;15.08;76.19;100694.22;107331;1254;70818;-38
2023/09/27 05:29:45;;;;;;;6.30;4.80;;;;;;;15.15;76.03;100690.17;107344;1255;59843;-39
2023/09/27 05:32:13;;;;;;;5.00;4.50;;;;;;;15.19;75.86;100695.11;107366;1260;59589;-39
2023/09/27 05:34:41;;;;;;;7.70;4.40;;;;;;;15.20;75.96;100692.23;107342;1254;73805;-38
2023/09/27 05:37:10;;;;;;;4.80;4.40;;;;;;;15.24;75.98;100693.87;107335;1256;67555;-38
2023/09/27 05:39:38;;;;;;;6.10;4.70;;;;;;;15.26;76.10;100691.34;107329;1257;72089;-39
2023/09/27 05:42:05;;;;;;;4.70;4.30;;;;;;;15.34;76.35;100696.42;107310;1257;60530;-39
2023/09/27 05:44:33;;;;;;;4.80;4.30;;;;;;;15.44;76.51;100693.51;107320;1254;59595;-39
2023/09/27 05:47:00;;;;;;;5.50;4.80;;;;;;;15.51;76.46;100696.47;107358;1254;74157;-38
2023/09/27 05:49:31;;;;;;;6.00;4.80;;;;;;;15.52;76.39;100699.70;107416;1255;67563;-39
2023/09/27 05:51:58;;;;;;;7.60;5.00;;;;;;;15.53;76.57;100707.16;107361;1257;72696;-39
2023/09/27 05:54:27;;;;;;;5.00;4.50;;;;;;;15.58;76.61;100707.10;107350;1256;61697;-38
2023/09/27 05:56:55;;;;;;;5.20;4.50;;;;;;;15.68;76.61;100710.58;107387;1255;60446;-39
2023/09/27 05:59:24;;;;;;;4.80;4.20;;;;;;;15.78;76.49;100709.52;107397;1255;73857;-38
2023/09/27 06:01:52;;;;;;;5.70;5.10;;;;;;;15.84;76.59;100713.55;107394;1254;67636;-39
2023/09/27 06:04:22;;;;;;;5.10;4.60;;;;;;;15.91;76.76;100716.80;107419;1254;72680;-39
2023/09/27 06:06:50;;;;;;;5.70;5.20;;;;;;;15.97;76.86;100712.94;107426;1254;60385;-39
2023/09/27 06:09:18;;;;;;;6.60;5.50;;;;;;;16.10;76.83;100716.29;107371;1254;60331;-39
2023/09/27 06:11:46;;;;;;;5.50;5.00;;;;;;;16.24;76.61;100718.27;107398;1257;73913;-38
2023/09/27 06:14:14;;;;;;;8.10;5.10;;;;;;;16.34;76.29;100719.61;107402;1254;67883;-39
2023/09/27 06:16:44;;;;;;;6.10;5.50;;;;;;;16.39;76.28;100725.10;107373;1260;72661;-39
2023/09/27 06:19:12;;;;;;;5.90;5.40;;;;;;;16.45;76.21;100726.99;107376;1254;60476;-38
2023/09/27 06:21:40;;;;;;;5.40;5.00;;;;;;;16.50;76.14;100730.69;107368;1254;60341;-39
2023/09/27 06:24:08;;;;;;;8.20;5.70;;;;;;;16.60;75.90;100736.81;107361;1254;72858;-39
2023/09/27 06:26:36;;;;;;;6.70;5.50;;;;;;;16.71;75.76;100741.45;107376;1254;66419;-39
2023/09/27 06:29:03;;;;;;;7.10;6.40;;;;;;;16.74;75.53;100731.09;107394;1254;72700;-39
2023/09/27 06:31:32;;;;;;;7.00;6.30;;;;;;;16.87;75.41;100734.76;107483;1257;60112;-39
2023/09/27 06:34:00;;;;;;;10.70;6.70;;;;;;;16.96;75.11;100734.58;107413;1254;60373;-39
2023/09/27 06:36:34;;;;;;;7.80;6.10;;;;;;;17.04;74.87;100735.92;107398;1254;73838;-39
2023/09/27 06:39:02;;;;;;;7.40;6.60;;;;;;;17.16;74.61;100734.93;107421;1254;67803;-39
2023/09/27 06:41:30;;;;;;;9.60;7.70;;;;;;;17.27;74.45;100736.18;107425;1257;72144;-39
2023/09/27 06:43:58;;;;;;;10.30;9.30;;;;;;;17.31;74.19;100742.60;107404;1257;60529;-39
2023/09/27 06:46:25;;;;;;;12.00;10.80;;;;;;;17.31;73.89;100744.55;107468;1254;60471;-39
2023/09/27 06:49:05;;;;;;;15.30;13.50;;;;;;;17.32;74.08;100743.63;107403;1260;73870;-39
2023/09/27 06:51:33;;;;;;;14.60;13.10;;;;;;;17.38;73.87;100745.03;107413;1254;67618;-39
2023/09/27 06:54:02;;;;;;;14.40;12.30;;;;;;;17.49;73.47;100747.83;107378;1257;72719;-39
2023/09/27 06:56:30;;;;;;;12.70;11.50;;;;;;;17.59;73.16;100746.66;107400;1257;60478;-39
2023/09/27 06:58:58;;;;;;;12.20;11.00;;;;;;;17.64;72.99;100742.81;107425;1254;60433;-39
2023/09/27 07:01:25;;;;;;;13.10;11.10;;;;;;;17.68;73.00;100745.83;107441;1254;73872;-39
2023/09/27 07:03:55;;;;;;;13.70;11.70;;;;;;;17.73;73.06;100750.21;107417;1255;67087;-39
2023/09/27 07:06:23;;;;;;;11.30;10.20;;;;;;;17.78;72.97;100754.27;107380;1257;72733;-39
2023/09/27 07:08:52;;;;;;;11.50;10.20;;;;;;;17.88;72.82;100757.60;107367;1257;63835;-39
2023/09/27 07:11:21;;;;;;;12.40;10.80;;;;;;;17.96;72.53;100755.80;107427;1254;60063;-39
2023/09/27 07:13:49;;;;;;;13.10;11.30;;;;;;;17.99;72.58;100759.98;107406;1254;74156;-39
2023/09/27 07:16:28;;;;;;;12.30;11.00;;;;;;;18.00;72.71;100760.80;107386;1254;68249;-39
2023/09/27 07:18:59;;;;;;;11.60;10.40;;;;;;;18.01;72.81;100763.85;107381;1254;72654;-39
2023/09/27 07:21:27;;;;;;;9.80;8.80;;;;;;;18.05;72.83;100761.15;107397;1258;61676;-39
2023/09/27 07:23:56;;;;;;;9.90;9.00;;;;;;;18.13;72.57;100763.44;107447;1254;60612;-39
2023/09/27 07:26:23;;;;;;;11.60;9.80;;;;;;;18.20;72.51;100764.38;107389;1254;73878;-39
2023/09/27 07:28:51;;;;;;;10.30;9.00;;;;;;;18.23;73.11;100764.33;107391;1255;66562;-39
2023/09/27 07:31:19;;;;;;;13.30;10.60;;;;;;;18.27;73.14;100764.45;107437;1260;72694;-39
2023/09/27 07:33:52;;;;;;;11.40;10.30;;;;;;;18.32;73.14;100763.08;107369;1254;62139;-39
2023/09/27 07:36:24;;;;;;;11.10;10.00;;;;;;;18.39;72.92;100763.30;107371;1254;60326;-39
2023/09/27 07:38:52;;;;;;;11.60;10.40;;;;;;;18.51;72.52;100764.30;107475;1254;73889;-39
2023/09/27 07:41:20;;;;;;;11.70;10.00;;;;;;;18.55;72.38;100764.42;107396;1254;67184;-39
2023/09/27 07:43:48;;;;;;;12.10;10.60;;;;;;;18.59;72.58;100764.85;107416;1257;72671;-39
2023/09/27 07:46:17;;;;;;;11.30;10.10;;;;;;;18.64;72.40;100760.42;107349;1254;60488;-39
2023/09/27 07:48:45;;;;;;;10.30;9.20;;;;;;;18.73;72.15;100759.55;107392;1254;60342;-39
2023/09/27 07:51:19;;;;;;;9.20;8.30;;;;;;;18.87;71.59;100758.56;107395;1254;73819;-39
2023/09/27 07:53:46;;;;;;;9.80;7.50;;;;;;;19.00;71.42;100756.46;107408;1254;66570;-39
2023/09/27 07:56:19;;;;;;;11.40;9.70;;;;;;;19.13;70.73;100758.52;107363;1254;72688;-39
2023/09/27 07:58:49;;;;;;;10.70;9.60;;;;;;;19.24;70.42;100756.70;107379;1258;59926;-39
2023/09/27 08:01:23;;;;;;;10.90;9.60;;;;;;;19.31;70.09;100753.05;107422;1254;60434;-39
2023/09/27 08:03:52;;;;;;;13.00;9.60;;;;;;;19.35;69.92;100754.17;107397;1257;73856;-39
2023/09/27 08:06:20;;;;;;;9.70;8.60;;;;;;;19.37;69.74;100753.23;107407;1257;67567;-39
2023/09/27 08:08:51;;;;;;;8.50;7.60;;;;;;;19.45;69.71;100752.73;107407;1254;73932;-39
2023/09/27 08:11:19;;;;;;;8.90;7.90;;;;;;;19.54;69.43;100750.36;107365;1257;59334;-39
2023/09/27 08:13:47;;;;;;;10.40;8.00;;;;;;;19.57;69.43;100745.97;107364;1260;60319;-39
2023/09/27 08:16:14;;;;;;;8.60;7.70;;;;;;;19.64;69.27;100742.77;107369;1255;74248;-39
2023/09/27 08:18:42;;;;;;;8.90;7.40;;;;;;;19.73;69.04;100746.51;107341;1257;67612;-39
2023/09/27 08:21:10;;;;;;;8.50;7.60;;;;;;;19.77;68.74;100731.36;107407;1256;72886;-39
2023/09/27 08:23:40;;;;;;;8.50;6.80;;;;;;;19.91;68.75;100737.75;107345;1257;61707;-39
2023/09/27 08:26:12;;;;;;;7.50;6.40;;;;;;;20.02;68.15;100740.63;107390;1257;60374;-39
2023/09/27 08:28:40;;;;;;;9.30;7.10;;;;;;;20.18;67.76;100743.17;107342;1256;73812;-39
2023/09/27 08:31:09;;;;;;;13.90;7.50;;;;;;;20.30;67.58;100738.80;107352;1257;68059;-39
2023/09/27 08:33:37;;;;;;;11.90;8.30;;;;;;;20.45;67.07;100735.14;107367;1257;71486;-39
2023/09/27 08:36:05;;;;;;;10.60;7.50;;;;;;;20.58;66.54;100733.09;107329;1256;60951;-39
2023/09/27 08:38:33;;;;;;;11.90;7.80;;;;;;;20.67;66.38;100732.23;107361;1256;60331;-39
2023/09/27 08:41:03;;;;;;;9.10;7.30;;;;;;;20.77;66.07;100727.73;107374;1255;73058;-39
2023/09/27 08:43:32;;;;;;;;;;;;;;;20.90;65.58;100724.88;107368;1260;68091;-39
2023/09/27 08:46:00;;;;;;;9.90;7.50;;;;;;;21.03;64.81;100721.71;107363;1257;73052;-38
2023/09/27 08:48:28;;;;;;;9.00;6.50;;;;;;;21.16;64.26;100720.59;107346;1257;60384;-39
2023/09/27 08:51:03;;;;;;;8.90;6.40;;;;;;;21.34;63.48;100716.99;107364;1257;60456;-39
2023/09/27 08:53:32;;;;;;;10.30;7.10;;;;;;;21.50;63.08;100715.05;107262;1258;72731;-39
2023/09/27 08:56:01;;;;;;;9.80;6.80;;;;;;;21.61;62.45;100711.23;107434;1256;67024;-39
2023/09/27 08:58:29;;;;;;;11.10;7.10;;;;;;;21.72;62.20;100709.51;107382;1256;71461;-39
2023/09/27 09:00:57;;;;;;;8.70;6.70;;;;;;;21.83;61.42;100706.77;107301;1257;60376;-39
2023/09/27 09:03:25;;;;;;;8.50;6.80;;;;;;;21.93;61.38;100706.48;107358;1254;60193;-39
2023/09/27 09:05:53;;;;;;;11.70;7.30;;;;;;;22.00;61.02;100694.39;107372;1257;74162;-39
2023/09/27 09:08:20;;;;;;;12.20;6.70;;;;;;;22.21;60.42;100704.11;107355;1258;66886;-39
2023/09/27 09:11:12;;;;;;;9.70;7.30;;;;;;;22.39;60.02;100703.52;107318;1257;72644;-39
2023/09/27 09:16:47;;;;;;;9.60;6.70;;;;;;;22.71;59.03;100702.77;104142;1291;600259;-39
2023/09/27 09:19:23;;;;;;;11.90;7.30;;;;;;;22.87;58.55;100699.30;106603;1267;59459;-39
2023/09/27 09:22:11;;;;;;;10.80;7.20;;;;;;;23.07;57.72;100698.73;106645;1266;59200;-39
2023/09/27 09:24:43;;;;;;;8.50;7.20;;;;;;;23.20;56.73;100701.25;106656;1266;74486;-39
2023/09/27 09:27:15;;;;;;;10.90;7.30;;;;;;;23.32;56.10;100698.43;106641;1266;67819;-39
2023/09/27 09:29:48;;;;;;;10.90;8.50;;;;;;;23.44;55.85;100694.11;104933;1264;2370870;-39
2023/09/27 09:32:20;;;;;;;11.00;8.40;;;;;;;23.53;55.22;100695.18;106677;1266;59796;-39
2023/09/27 09:34:49;;;;;;;13.20;7.80;;;;;;;23.65;55.22;100689.81;106765;1264;62219;-39
2023/09/27 09:37:18;;;;;;;12.40;8.00;;;;;;;23.80;54.84;100683.83;106766;1265;73433;-39
2023/09/27 09:39:48;;;;;;;9.60;8.50;;;;;;;23.96;54.11;100679.33;106678;1264;67780;-39
2023/09/27 09:42:32;;;;;;;13.30;7.90;;;;;;;24.09;54.00;100676.36;106678;1267;72896;-39
2023/09/27 09:45:07;;;;;;;10.10;7.20;;;;;;;24.23;53.42;100675.70;106611;1267;60478;-39
2023/09/27 09:47:37;;;;;;;12.10;7.70;;;;;;;24.37;52.44;100670.86;106651;1264;59590;-39
2023/09/27 09:50:16;;;;;;;9.60;7.40;;;;;;;24.47;51.97;100665.55;106626;1269;72261;-39
2023/09/27 09:52:47;;;;;;;10.60;7.40;;;;;;;24.58;51.60;100663.23;106673;1267;67604;-39
2023/09/27 09:55:19;;;;;;;15.30;8.00;;;;;;;24.68;51.39;100664.70;106745;1265;72676;-39
2023/09/27 09:58:22;;;;;;;13.70;7.70;;;;;;;24.80;50.97;100663.06;106743;1266;60457;-39
2023/09/27 10:00:50;;;;;;;9.90;7.40;;;;;;;24.89;50.99;100659.44;106790;1264;62206;-40
2023/09/27 10:03:22;;;;;;;10.60;7.70;;;;;;;24.94;50.93;100657.91;106772;1266;73434;-40
2023/09/27 10:05:51;;;;;;;11.00;7.50;;;;;;;25.01;51.13;100656.42;106749;1264;66481;-39
2023/09/27 10:08:19;;;;;;;13.90;8.30;;;;;;;25.12;50.74;100653.77;106723;1267;72118;-40
2023/09/27 10:10:47;;;;;;;13.10;7.10;;;;;;;25.26;50.31;100655.77;106595;1269;60223;-40
2023/09/27 10:13:18;;;;;;;12.00;7.10;;;;;;;25.42;49.94;100651.78;106737;1267;62126;-40
2023/09/27 10:15:45;;;;;;;14.00;7.10;;;;;;;25.60;49.50;100652.53;106761;1267;71733;-40
2023/09/27 10:18:22;;;;;;;15.50;7.00;;;;;;;25.73;48.62;100649.76;106731;1264;66614;-40
2023/09/27 10:21:03;;;;;;;9.20;6.30;;;;;;;25.88;48.00;100648.17;106760;1266;72717;-40
2023/09/27 10:23:46;;;;;;;11.50;7.40;;;;;;;26.02;47.69;100646.97;106739;1267;59716;-40
2023/09/27 10:26:18;;;;;;;11.30;7.10;;;;;;;26.11;47.14;100639.34;106717;1267;60018;-40
2023/09/27 10:29:06;;;;;;;8.30;6.20;;;;;;;26.23;46.97;100642.02;106547;1266;74017;-40
2023/09/27 10:31:36;;;;;;;8.40;6.00;;;;;;;26.34;46.53;100634.90;106520;1269;67715;-40
2023/09/27 10:34:29;;;;;;;9.20;6.50;;;;;;;26.42;45.97;100637.09;106987;1266;70516;-40
2023/09/27 10:37:00;;;;;;;13.70;7.00;;;;;;;26.55;46.33;100637.70;106657;1269;60080;-40
2023/09/27 10:39:30;;;;;;;12.70;6.80;;;;;;;26.72;45.72;100634.64;106632;1266;59546;-40
2023/09/27 10:41:58;;;;;;;9.70;6.30;;;;;;;26.87;44.87;100634.32;106584;1264;73043;-40
2023/09/27 10:44:30;;;;;;;9.60;6.10;;;;;;;26.97;44.58;100633.09;106617;1266;68319;-40
2023/09/27 10:47:03;;;;;;;12.10;5.60;;;;;;;27.03;44.62;100628.23;106670;1267;72686;-40
2023/09/27 10:49:43;;;;;;;9.40;6.10;;;;;;;27.21;44.11;100623.80;107133;1263;60172;-40
2023/09/27 10:52:15;;;;;;;8.80;5.70;;;;;;;27.42;43.69;100623.50;107044;1257;60126;-40
2023/09/27 10:54:43;;;;;;;12.60;6.10;;;;;;;27.57;43.70;100621.40;107055;1263;73054;-40
2023/09/27 10:57:14;;;;;;;12.10;5.50;;;;;;;27.62;43.16;100616.77;107186;1257;69757;-40
2023/09/27 10:59:46;;;;;;;12.80;5.80;;;;;;;27.68;42.69;100615.83;107111;1258;72681;-40
2023/09/27 11:02:14;;;;;;;11.60;5.80;;;;;;;27.82;42.53;100614.33;107010;1260;60130;-40
2023/09/27 11:04:43;;;;;;;8.50;5.10;;;;;;;27.98;41.89;100610.53;107098;1263;59970;-40
2023/09/27 11:07:11;;;;;;;10.00;6.00;;;;;;;28.12;41.74;100613.14;107126;1257;72016;-40
2023/09/27 11:09:45;;;;;;;12.30;5.90;;;;;;;28.14;40.84;100609.98;107184;1257;69060;-40
2023/09/27 11:12:12;;;;;;;8.60;5.30;;;;;;;28.11;41.17;100612.35;107174;1257;72692;-40
2023/09/27 11:14:43;;;;;;;7.60;5.50;;;;;;;28.24;41.00;100607.39;107056;1260;59713;-40
2023/09/27 11:17:25;;;;;;;9.40;6.00;;;;;;;28.49;40.55;100608.73;107261;1262;59538;-40
2023/09/27 11:19:53;;;;;;;8.30;5.30;;;;;;;28.80;40.05;100602.88;107285;1257;73425;-40
2023/09/27 11:22:27;;;;;;;8.40;5.80;;;;;;;29.01;39.87;100597.66;107110;1257;68756;-40
2023/09/27 11:24:55;;;;;;;11.40;5.50;;;;;;;29.16;39.67;100594.45;107240;1258;73066;-40